sensor_id;sensor_type;location;lat;lon;timestamp;P1;durP1;ratioP1;P2;durP2;ratioP2
10088;SDS011;51898;49.864;8.550;2023-04-08T00:01:05;5.50;;;4.80;;
10088;SDS011;51898;49.864;8.550;2023-04-08T00:04:07;4.53;;;4.13;;
10088;SDS011;51898;49.864;8.550;2023-04-08T00:07:10;6.30;;;5.40;;
10088;SDS011;51898;49.864;8.550;2023-04-08T00:10:11;5.33;;;4.83;;
10088;SDS011;51898;49.864;8.550;2023-04-08T00:13:13;6.00;;;5.40;;
10088;SDS011;51898;49.864;8.550;2023-04-08T00:16:15;6.50;;;5.80;;
10088;SDS011;51898;49.864;8.550;2023-04-08T00:19:16;6.13;;;5.47;;
10088;SDS011;51898;49.864;8.550;2023-04-08T00:22:18;7.43;;;6.57;;
10088;SDS011;51898;49.864;8.550;2023-04-08T00:25:20;7.97;;;6.47;;
10088;SDS011;51898;49.864;8.550;2023-04-08T00:28:25;7.77;;;6.93;;
10088;SDS011;51898;49.864;8.550;2023-04-08T00:31:27;9.33;;;6.90;;
10088;SDS011;51898;49.864;8.550;2023-04-08T00:34:29;8.20;;;7.00;;
10088;SDS011;51898;49.864;8.550;2023-04-08T00:37:30;10.80;;;6.80;;
10088;SDS011;51898;49.864;8.550;2023-04-08T00:40:33;7.10;;;6.40;;
10088;SDS011;51898;49.864;8.550;2023-04-08T00:43:35;7.03;;;6.07;;
10088;SDS011;51898;49.864;8.550;2023-04-08T00:46:37;7.20;;;6.37;;
10088;SDS011;51898;49.864;8.550;2023-04-08T00:49:40;6.83;;;6.23;;
10088;SDS011;51898;49.864;8.550;2023-04-08T00:52:42;6.97;;;6.27;;
10088;SDS011;51898;49.864;8.550;2023-04-08T00:55:44;6.67;;;6.03;;
10088;SDS011;51898;49.864;8.550;2023-04-08T00:58:46;6.87;;;6.20;;
10088;SDS011;51898;49.864;8.550;2023-04-08T01:05:12;7.00;;;5.87;;
10088;SDS011;51898;49.864;8.550;2023-04-08T01:08:28;7.67;;;6.00;;
10088;SDS011;51898;49.864;8.550;2023-04-08T01:11:32;7.20;;;6.50;;
10088;SDS011;51898;49.864;8.550;2023-04-08T01:14:37;7.23;;;6.50;;
10088;SDS011;51898;49.864;8.550;2023-04-08T01:17:42;7.40;;;6.37;;
10088;SDS011;51898;49.864;8.550;2023-04-08T01:20:46;6.37;;;5.67;;
10088;SDS011;51898;49.864;8.550;2023-04-08T01:27:04;9.30;;;7.47;;
10088;SDS011;51898;49.864;8.550;2023-04-08T01:30:08;9.03;;;7.03;;
10088;SDS011;51898;49.864;8.550;2023-04-08T01:33:11;8.60;;;6.90;;
10088;SDS011;51898;49.864;8.550;2023-04-08T01:36:14;7.57;;;6.73;;
10088;SDS011;51898;49.864;8.550;2023-04-08T01:39:17;7.00;;;6.27;;
10088;SDS011;51898;49.864;8.550;2023-04-08T01:42:21;9.37;;;6.73;;
10088;SDS011;51898;49.864;8.550;2023-04-08T01:45:25;8.30;;;6.87;;
10088;SDS011;51898;49.864;8.550;2023-04-08T01:48:28;10.30;;;7.57;;
10088;SDS011;51898;49.864;8.550;2023-04-08T01:51:31;9.67;;;7.40;;
10088;SDS011;51898;49.864;8.550;2023-04-08T01:54:34;9.50;;;7.17;;
10088;SDS011;51898;49.864;8.550;2023-04-08T01:57:37;10.83;;;8.03;;
10088;SDS011;51898;49.864;8.550;2023-04-08T02:00:39;9.97;;;8.13;;
10088;SDS011;51898;49.864;8.550;2023-04-08T02:03:43;12.07;;;9.10;;
10088;SDS011;51898;49.864;8.550;2023-04-08T02:06:47;10.07;;;8.40;;
10088;SDS011;51898;49.864;8.550;2023-04-08T02:09:49;12.90;;;8.77;;
10088;SDS011;51898;49.864;8.550;2023-04-08T02:12:51;9.60;;;8.30;;
10088;SDS011;51898;49.864;8.550;2023-04-08T02:15:55;12.63;;;8.70;;
10088;SDS011;51898;49.864;8.550;2023-04-08T02:19:04;12.60;;;8.60;;
10088;SDS011;51898;49.864;8.550;2023-04-08T02:22:16;12.07;;;9.53;;
10088;SDS011;51898;49.864;8.550;2023-04-08T02:25:22;11.53;;;8.97;;
10088;SDS011;51898;49.864;8.550;2023-04-08T02:28:25;10.70;;;8.67;;
10088;SDS011;51898;49.864;8.550;2023-04-08T02:31:28;13.57;;;10.07;;
10088;SDS011;51898;49.864;8.550;2023-04-08T02:34:31;12.63;;;9.70;;
10088;SDS011;51898;49.864;8.550;2023-04-08T02:37:34;14.63;;;9.90;;
10088;SDS011;51898;49.864;8.550;2023-04-08T02:40:36;14.50;;;9.40;;
10088;SDS011;51898;49.864;8.550;2023-04-08T02:43:38;12.77;;;9.27;;
10088;SDS011;51898;49.864;8.550;2023-04-08T02:46:39;13.20;;;9.50;;
10088;SDS011;51898;49.864;8.550;2023-04-08T02:49:41;12.13;;;8.97;;
10088;SDS011;51898;49.864;8.550;2023-04-08T02:52:43;12.13;;;9.90;;
10088;SDS011;51898;49.864;8.550;2023-04-08T02:55:45;12.57;;;9.80;;
10088;SDS011;51898;49.864;8.550;2023-04-08T02:58:46;14.07;;;10.33;;
10088;SDS011;51898;49.864;8.550;2023-04-08T03:01:48;11.87;;;9.83;;
10088;SDS011;51898;49.864;8.550;2023-04-08T03:04:50;11.50;;;9.20;;
10088;SDS011;51898;49.864;8.550;2023-04-08T03:07:51;10.83;;;8.83;;
10088;SDS011;51898;49.864;8.550;2023-04-08T03:10:53;12.40;;;8.73;;
10088;SDS011;51898;49.864;8.550;2023-04-08T03:13:55;11.47;;;8.40;;
10088;SDS011;51898;49.864;8.550;2023-04-08T03:16:56;12.20;;;8.53;;
10088;SDS011;51898;49.864;8.550;2023-04-08T03:19:58;12.53;;;9.60;;
10088;SDS011;51898;49.864;8.550;2023-04-08T03:23:06;11.93;;;9.00;;
10088;SDS011;51898;49.864;8.550;2023-04-08T03:26:08;11.20;;;8.67;;
10088;SDS011;51898;49.864;8.550;2023-04-08T03:29:10;11.17;;;8.57;;
10088;SDS011;51898;49.864;8.550;2023-04-08T03:32:12;11.30;;;8.30;;
10088;SDS011;51898;49.864;8.550;2023-04-08T03:35:13;10.23;;;8.30;;
10088;SDS011;51898;49.864;8.550;2023-04-08T03:38:15;10.97;;;8.57;;
10088;SDS011;51898;49.864;8.550;2023-04-08T03:41:17;10.50;;;8.13;;
10088;SDS011;51898;49.864;8.550;2023-04-08T03:44:18;11.90;;;9.00;;
10088;SDS011;51898;49.864;8.550;2023-04-08T03:47:20;10.90;;;8.50;;
10088;SDS011;51898;49.864;8.550;2023-04-08T03:50:21;11.40;;;8.90;;
10088;SDS011;51898;49.864;8.550;2023-04-08T03:53:23;11.80;;;8.83;;
10088;SDS011;51898;49.864;8.550;2023-04-08T03:56:25;10.60;;;8.17;;
10088;SDS011;51898;49.864;8.550;2023-04-08T03:59:26;12.30;;;8.73;;
10088;SDS011;51898;49.864;8.550;2023-04-08T04:02:28;12.27;;;9.33;;
10088;SDS011;51898;49.864;8.550;2023-04-08T04:05:30;15.70;;;9.87;;
10088;SDS011;51898;49.864;8.550;2023-04-08T04:08:31;11.53;;;8.17;;
10088;SDS011;51898;49.864;8.550;2023-04-08T04:11:33;11.33;;;7.70;;
10088;SDS011;51898;49.864;8.550;2023-04-08T04:14:35;12.83;;;7.83;;
10088;SDS011;51898;49.864;8.550;2023-04-08T04:17:37;11.30;;;8.33;;
10088;SDS011;51898;49.864;8.550;2023-04-08T04:20:40;12.70;;;8.57;;
10088;SDS011;51898;49.864;8.550;2023-04-08T04:23:42;11.07;;;8.03;;
10088;SDS011;51898;49.864;8.550;2023-04-08T04:26:44;10.70;;;8.50;;
10088;SDS011;51898;49.864;8.550;2023-04-08T04:29:45;10.53;;;8.53;;
10088;SDS011;51898;49.864;8.550;2023-04-08T04:32:47;10.90;;;8.20;;
10088;SDS011;51898;49.864;8.550;2023-04-08T04:35:48;11.43;;;7.73;;
10088;SDS011;51898;49.864;8.550;2023-04-08T04:38:50;11.60;;;8.10;;
10088;SDS011;51898;49.864;8.550;2023-04-08T04:41:53;12.97;;;8.90;;
10088;SDS011;51898;49.864;8.550;2023-04-08T04:44:54;12.23;;;8.20;;
10088;SDS011;51898;49.864;8.550;2023-04-08T04:47:56;12.87;;;8.80;;
10088;SDS011;51898;49.864;8.550;2023-04-08T04:50:58;10.93;;;8.57;;
10088;SDS011;51898;49.864;8.550;2023-04-08T04:54:01;14.10;;;8.97;;
10088;SDS011;51898;49.864;8.550;2023-04-08T04:57:03;12.77;;;8.90;;
10088;SDS011;51898;49.864;8.550;2023-04-08T05:00:05;12.40;;;9.30;;
10088;SDS011;51898;49.864;8.550;2023-04-08T05:03:08;12.73;;;9.50;;
10088;SDS011;51898;49.864;8.550;2023-04-08T05:06:10;15.27;;;10.63;;
10088;SDS011;51898;49.864;8.550;2023-04-08T05:09:12;13.90;;;10.10;;
10088;SDS011;51898;49.864;8.550;2023-04-08T05:12:13;14.80;;;9.60;;
10088;SDS011;51898;49.864;8.550;2023-04-08T05:15:15;14.90;;;10.70;;
10088;SDS011;51898;49.864;8.550;2023-04-08T05:18:17;15.40;;;10.90;;
10088;SDS011;51898;49.864;8.550;2023-04-08T05:21:18;15.23;;;10.87;;
10088;SDS011;51898;49.864;8.550;2023-04-08T05:24:20;14.30;;;10.57;;
10088;SDS011;51898;49.864;8.550;2023-04-08T05:27:22;14.40;;;10.10;;
10088;SDS011;51898;49.864;8.550;2023-04-08T05:30:23;14.60;;;10.90;;
10088;SDS011;51898;49.864;8.550;2023-04-08T05:33:25;15.20;;;11.47;;
10088;SDS011;51898;49.864;8.550;2023-04-08T05:36:27;13.37;;;10.43;;
10088;SDS011;51898;49.864;8.550;2023-04-08T05:39:28;16.70;;;10.77;;
10088;SDS011;51898;49.864;8.550;2023-04-08T05:42:30;16.33;;;11.53;;
10088;SDS011;51898;49.864;8.550;2023-04-08T05:45:32;18.13;;;11.37;;
10088;SDS011;51898;49.864;8.550;2023-04-08T05:48:34;14.17;;;11.33;;
10088;SDS011;51898;49.864;8.550;2023-04-08T05:51:36;14.93;;;11.33;;
10088;SDS011;51898;49.864;8.550;2023-04-08T05:54:41;18.33;;;12.63;;
10088;SDS011;51898;49.864;8.550;2023-04-08T05:57:43;65.03;;;36.87;;
10088;SDS011;51898;49.864;8.550;2023-04-08T06:00:45;107.17;;;50.17;;
10088;SDS011;51898;49.864;8.550;2023-04-08T06:03:46;48.90;;;26.60;;
10088;SDS011;51898;49.864;8.550;2023-04-08T06:06:48;14.80;;;11.40;;
10088;SDS011;51898;49.864;8.550;2023-04-08T06:09:50;97.83;;;49.93;;
10088;SDS011;51898;49.864;8.550;2023-04-08T06:12:52;29.17;;;23.33;;
10088;SDS011;51898;49.864;8.550;2023-04-08T06:15:53;23.73;;;16.57;;
10088;SDS011;51898;49.864;8.550;2023-04-08T06:18:55;16.87;;;11.80;;
10088;SDS011;51898;49.864;8.550;2023-04-08T06:21:57;17.83;;;12.37;;
10088;SDS011;51898;49.864;8.550;2023-04-08T06:24:59;14.80;;;12.50;;
10088;SDS011;51898;49.864;8.550;2023-04-08T06:28:00;18.20;;;12.50;;
10088;SDS011;51898;49.864;8.550;2023-04-08T06:31:02;22.27;;;18.33;;
10088;SDS011;51898;49.864;8.550;2023-04-08T06:34:04;16.53;;;13.00;;
10088;SDS011;51898;49.864;8.550;2023-04-08T06:37:06;18.13;;;13.00;;
10088;SDS011;51898;49.864;8.550;2023-04-08T06:40:07;24.10;;;13.50;;
10088;SDS011;51898;49.864;8.550;2023-04-08T06:43:09;21.30;;;13.67;;
10088;SDS011;51898;49.864;8.550;2023-04-08T06:46:11;18.43;;;13.50;;
10088;SDS011;51898;49.864;8.550;2023-04-08T06:49:13;20.70;;;13.00;;
10088;SDS011;51898;49.864;8.550;2023-04-08T06:52:14;21.70;;;14.10;;
10088;SDS011;51898;49.864;8.550;2023-04-08T06:55:17;20.20;;;14.07;;
10088;SDS011;51898;49.864;8.550;2023-04-08T06:58:18;20.30;;;13.17;;
10088;SDS011;51898;49.864;8.550;2023-04-08T07:01:20;16.17;;;12.00;;
10088;SDS011;51898;49.864;8.550;2023-04-08T07:04:22;20.77;;;14.50;;
10088;SDS011;51898;49.864;8.550;2023-04-08T07:07:24;17.23;;;11.50;;
10088;SDS011;51898;49.864;8.550;2023-04-08T07:10:26;20.50;;;14.60;;
10088;SDS011;51898;49.864;8.550;2023-04-08T07:13:27;15.50;;;10.97;;
10088;SDS011;51898;49.864;8.550;2023-04-08T07:16:29;15.83;;;11.73;;
10088;SDS011;51898;49.864;8.550;2023-04-08T07:19:31;17.87;;;12.63;;
10088;SDS011;51898;49.864;8.550;2023-04-08T07:22:33;15.27;;;12.07;;
10088;SDS011;51898;49.864;8.550;2023-04-08T07:25:34;16.77;;;12.43;;
10088;SDS011;51898;49.864;8.550;2023-04-08T07:28:36;18.20;;;11.20;;
10088;SDS011;51898;49.864;8.550;2023-04-08T07:31:37;20.63;;;12.70;;
10088;SDS011;51898;49.864;8.550;2023-04-08T07:34:39;14.83;;;11.43;;
10088;SDS011;51898;49.864;8.550;2023-04-08T07:37:41;14.90;;;11.50;;
10088;SDS011;51898;49.864;8.550;2023-04-08T07:40:42;18.17;;;12.10;;
10088;SDS011;51898;49.864;8.550;2023-04-08T07:43:44;16.60;;;12.67;;
10088;SDS011;51898;49.864;8.550;2023-04-08T07:46:46;13.80;;;10.27;;
10088;SDS011;51898;49.864;8.550;2023-04-08T07:49:51;15.10;;;11.10;;
10088;SDS011;51898;49.864;8.550;2023-04-08T07:52:54;14.83;;;11.37;;
10088;SDS011;51898;49.864;8.550;2023-04-08T07:55:56;17.00;;;11.90;;
10088;SDS011;51898;49.864;8.550;2023-04-08T07:58:58;20.70;;;14.20;;
10088;SDS011;51898;49.864;8.550;2023-04-08T08:02:00;14.50;;;12.20;;
10088;SDS011;51898;49.864;8.550;2023-04-08T08:05:02;15.23;;;10.80;;
10088;SDS011;51898;49.864;8.550;2023-04-08T08:08:04;13.70;;;10.60;;
10088;SDS011;51898;49.864;8.550;2023-04-08T08:11:08;14.07;;;11.20;;
10088;SDS011;51898;49.864;8.550;2023-04-08T08:14:09;18.40;;;10.50;;
10088;SDS011;51898;49.864;8.550;2023-04-08T08:17:13;16.13;;;11.87;;
10088;SDS011;51898;49.864;8.550;2023-04-08T08:20:15;14.30;;;11.40;;
10088;SDS011;51898;49.864;8.550;2023-04-08T08:23:17;16.33;;;11.63;;
10088;SDS011;51898;49.864;8.550;2023-04-08T08:26:19;14.90;;;11.53;;
10088;SDS011;51898;49.864;8.550;2023-04-08T08:29:21;12.77;;;10.80;;
10088;SDS011;51898;49.864;8.550;2023-04-08T08:32:22;15.40;;;10.80;;
10088;SDS011;51898;49.864;8.550;2023-04-08T08:35:24;15.23;;;11.97;;
10088;SDS011;51898;49.864;8.550;2023-04-08T08:38:26;13.90;;;10.77;;
10088;SDS011;51898;49.864;8.550;2023-04-08T08:41:32;13.20;;;11.20;;
10088;SDS011;51898;49.864;8.550;2023-04-08T08:44:35;16.57;;;11.00;;
10088;SDS011;51898;49.864;8.550;2023-04-08T08:47:36;13.13;;;10.57;;
10088;SDS011;51898;49.864;8.550;2023-04-08T08:50:38;13.83;;;11.33;;
10088;SDS011;51898;49.864;8.550;2023-04-08T08:53:40;14.00;;;11.00;;
10088;SDS011;51898;49.864;8.550;2023-04-08T08:56:45;14.27;;;12.07;;
10088;SDS011;51898;49.864;8.550;2023-04-08T08:59:47;15.37;;;11.30;;
10088;SDS011;51898;49.864;8.550;2023-04-08T09:02:48;13.73;;;11.70;;
10088;SDS011;51898;49.864;8.550;2023-04-08T09:08:53;14.30;;;11.53;;
10088;SDS011;51898;49.864;8.550;2023-04-08T09:12:01;15.97;;;12.03;;
10088;SDS011;51898;49.864;8.550;2023-04-08T09:15:08;14.73;;;11.00;;
10088;SDS011;51898;49.864;8.550;2023-04-08T09:18:20;13.40;;;10.90;;
10088;SDS011;51898;49.864;8.550;2023-04-08T09:21:22;15.47;;;11.70;;
10088;SDS011;51898;49.864;8.550;2023-04-08T09:24:28;13.97;;;10.67;;
10088;SDS011;51898;49.864;8.550;2023-04-08T09:27:34;15.60;;;11.70;;
10088;SDS011;51898;49.864;8.550;2023-04-08T09:30:36;13.80;;;12.13;;
10088;SDS011;51898;49.864;8.550;2023-04-08T09:33:38;13.83;;;11.40;;
10088;SDS011;51898;49.864;8.550;2023-04-08T09:36:41;13.67;;;10.93;;
10088;SDS011;51898;49.864;8.550;2023-04-08T09:39:43;14.23;;;12.00;;
10088;SDS011;51898;49.864;8.550;2023-04-08T09:42:46;14.27;;;10.07;;
10088;SDS011;51898;49.864;8.550;2023-04-08T09:45:51;11.03;;;9.63;;
10088;SDS011;51898;49.864;8.550;2023-04-08T09:52:15;12.97;;;9.70;;
10088;SDS011;51898;49.864;8.550;2023-04-08T09:55:56;12.50;;;10.03;;
10088;SDS011;51898;49.864;8.550;2023-04-08T09:59:02;13.93;;;11.20;;
10088;SDS011;51898;49.864;8.550;2023-04-08T10:02:09;12.60;;;9.90;;
10088;SDS011;51898;49.864;8.550;2023-04-08T10:05:14;12.57;;;9.40;;
10088;SDS011;51898;49.864;8.550;2023-04-08T10:08:18;11.70;;;9.30;;
10088;SDS011;51898;49.864;8.550;2023-04-08T10:11:20;12.97;;;9.83;;
10088;SDS011;51898;49.864;8.550;2023-04-08T10:14:23;12.63;;;9.23;;
10088;SDS011;51898;49.864;8.550;2023-04-08T10:17:28;10.70;;;9.13;;
10088;SDS011;51898;49.864;8.550;2023-04-08T10:23:54;10.80;;;9.57;;
10088;SDS011;51898;49.864;8.550;2023-04-08T10:26:59;11.33;;;9.27;;
10088;SDS011;51898;49.864;8.550;2023-04-08T10:30:02;10.30;;;9.27;;
10088;SDS011;51898;49.864;8.550;2023-04-08T10:33:33;12.33;;;9.77;;
10088;SDS011;51898;49.864;8.550;2023-04-08T10:36:36;10.97;;;8.80;;
10088;SDS011;51898;49.864;8.550;2023-04-08T10:39:37;13.13;;;9.80;;
10088;SDS011;51898;49.864;8.550;2023-04-08T10:42:39;11.70;;;9.10;;
10088;SDS011;51898;49.864;8.550;2023-04-08T10:45:42;14.70;;;9.53;;
10088;SDS011;51898;49.864;8.550;2023-04-08T10:48:58;15.87;;;9.97;;
10088;SDS011;51898;49.864;8.550;2023-04-08T10:52:05;10.50;;;8.10;;
10088;SDS011;51898;49.864;8.550;2023-04-08T10:55:08;11.30;;;8.60;;
10088;SDS011;51898;49.864;8.550;2023-04-08T10:58:10;9.97;;;8.97;;
10088;SDS011;51898;49.864;8.550;2023-04-08T11:01:12;9.50;;;7.83;;
10088;SDS011;51898;49.864;8.550;2023-04-08T11:04:15;9.13;;;7.50;;
10088;SDS011;51898;49.864;8.550;2023-04-08T11:07:19;9.10;;;7.90;;
10088;SDS011;51898;49.864;8.550;2023-04-08T11:10:21;11.67;;;8.47;;
10088;SDS011;51898;49.864;8.550;2023-04-08T11:13:23;10.43;;;7.60;;
10088;SDS011;51898;49.864;8.550;2023-04-08T11:16:24;8.87;;;7.37;;
10088;SDS011;51898;49.864;8.550;2023-04-08T11:19:28;10.50;;;8.00;;
10088;SDS011;51898;49.864;8.550;2023-04-08T11:22:29;10.03;;;8.27;;
10088;SDS011;51898;49.864;8.550;2023-04-08T11:25:33;11.93;;;8.10;;
10088;SDS011;51898;49.864;8.550;2023-04-08T11:28:35;11.80;;;7.60;;
10088;SDS011;51898;49.864;8.550;2023-04-08T11:31:37;9.07;;;7.63;;
10088;SDS011;51898;49.864;8.550;2023-04-08T11:34:38;11.00;;;8.93;;
10088;SDS011;51898;49.864;8.550;2023-04-08T11:37:41;9.40;;;8.37;;
10088;SDS011;51898;49.864;8.550;2023-04-08T11:41:01;10.80;;;8.30;;
10088;SDS011;51898;49.864;8.550;2023-04-08T11:44:03;10.90;;;8.63;;
10088;SDS011;51898;49.864;8.550;2023-04-08T11:47:06;8.17;;;7.33;;
10088;SDS011;51898;49.864;8.550;2023-04-08T11:50:08;10.17;;;8.63;;
10088;SDS011;51898;49.864;8.550;2023-04-08T11:53:17;10.70;;;9.07;;
10088;SDS011;51898;49.864;8.550;2023-04-08T11:56:22;10.50;;;9.37;;
10088;SDS011;51898;49.864;8.550;2023-04-08T11:59:24;13.80;;;9.53;;
10088;SDS011;51898;49.864;8.550;2023-04-08T12:02:29;9.10;;;7.63;;
10088;SDS011;51898;49.864;8.550;2023-04-08T12:05:31;8.23;;;6.50;;
10088;SDS011;51898;49.864;8.550;2023-04-08T12:08:33;10.53;;;7.30;;
10088;SDS011;51898;49.864;8.550;2023-04-08T12:11:34;9.80;;;7.57;;
10088;SDS011;51898;49.864;8.550;2023-04-08T12:14:36;10.10;;;7.07;;
10088;SDS011;51898;49.864;8.550;2023-04-08T12:17:37;8.80;;;7.43;;
10088;SDS011;51898;49.864;8.550;2023-04-08T12:20:39;9.83;;;8.20;;
10088;SDS011;51898;49.864;8.550;2023-04-08T12:23:41;7.50;;;6.60;;
10088;SDS011;51898;49.864;8.550;2023-04-08T12:26:42;9.00;;;7.60;;
10088;SDS011;51898;49.864;8.550;2023-04-08T12:29:44;9.47;;;7.03;;
10088;SDS011;51898;49.864;8.550;2023-04-08T12:32:46;9.13;;;6.50;;
10088;SDS011;51898;49.864;8.550;2023-04-08T12:35:48;8.00;;;7.07;;
10088;SDS011;51898;49.864;8.550;2023-04-08T12:38:49;8.70;;;7.47;;
10088;SDS011;51898;49.864;8.550;2023-04-08T12:41:51;7.43;;;6.73;;
10088;SDS011;51898;49.864;8.550;2023-04-08T12:44:53;9.03;;;7.77;;
10088;SDS011;51898;49.864;8.550;2023-04-08T12:47:55;7.90;;;7.10;;
10088;SDS011;51898;49.864;8.550;2023-04-08T12:50:56;9.33;;;7.00;;
10088;SDS011;51898;49.864;8.550;2023-04-08T12:54:00;8.97;;;6.10;;
10088;SDS011;51898;49.864;8.550;2023-04-08T12:57:04;7.33;;;6.50;;
10088;SDS011;51898;49.864;8.550;2023-04-08T13:00:05;6.80;;;5.73;;
10088;SDS011;51898;49.864;8.550;2023-04-08T13:03:07;6.73;;;5.87;;
10088;SDS011;51898;49.864;8.550;2023-04-08T13:06:09;12.50;;;6.63;;
10088;SDS011;51898;49.864;8.550;2023-04-08T13:09:12;6.77;;;6.07;;
10088;SDS011;51898;49.864;8.550;2023-04-08T13:12:15;7.30;;;5.70;;
10088;SDS011;51898;49.864;8.550;2023-04-08T13:15:17;6.77;;;5.80;;
10088;SDS011;51898;49.864;8.550;2023-04-08T13:18:18;7.90;;;6.30;;
10088;SDS011;51898;49.864;8.550;2023-04-08T13:21:20;11.47;;;6.47;;
10088;SDS011;51898;49.864;8.550;2023-04-08T13:24:22;7.90;;;7.10;;
10088;SDS011;51898;49.864;8.550;2023-04-08T13:27:24;8.80;;;7.13;;
10088;SDS011;51898;49.864;8.550;2023-04-08T13:30:25;10.07;;;7.10;;
10088;SDS011;51898;49.864;8.550;2023-04-08T13:33:27;10.97;;;7.40;;
10088;SDS011;51898;49.864;8.550;2023-04-08T13:36:29;8.20;;;7.10;;
10088;SDS011;51898;49.864;8.550;2023-04-08T13:39:31;7.40;;;5.80;;
10088;SDS011;51898;49.864;8.550;2023-04-08T13:42:33;5.73;;;5.20;;
10088;SDS011;51898;49.864;8.550;2023-04-08T13:45:35;6.10;;;5.40;;
10088;SDS011;51898;49.864;8.550;2023-04-08T13:48:37;7.27;;;6.43;;
10088;SDS011;51898;49.864;8.550;2023-04-08T13:51:39;6.83;;;6.13;;
10088;SDS011;51898;49.864;8.550;2023-04-08T13:54:40;8.23;;;7.17;;
10088;SDS011;51898;49.864;8.550;2023-04-08T13:57:42;8.43;;;7.33;;
10088;SDS011;51898;49.864;8.550;2023-04-08T14:00:44;8.23;;;7.43;;
10088;SDS011;51898;49.864;8.550;2023-04-08T14:03:45;10.13;;;8.10;;
10088;SDS011;51898;49.864;8.550;2023-04-08T14:06:49;8.27;;;6.20;;
10088;SDS011;51898;49.864;8.550;2023-04-08T14:09:53;9.40;;;7.63;;
10088;SDS011;51898;49.864;8.550;2023-04-08T14:12:54;8.70;;;7.50;;
10088;SDS011;51898;49.864;8.550;2023-04-08T14:15:56;8.27;;;7.47;;
10088;SDS011;51898;49.864;8.550;2023-04-08T14:18:58;8.30;;;7.30;;
10088;SDS011;51898;49.864;8.550;2023-04-08T14:22:00;8.20;;;6.77;;
10088;SDS011;51898;49.864;8.550;2023-04-08T14:25:02;8.10;;;7.30;;
10088;SDS011;51898;49.864;8.550;2023-04-08T14:28:04;10.30;;;8.47;;
10088;SDS011;51898;49.864;8.550;2023-04-08T14:31:06;15.53;;;8.27;;
10088;SDS011;51898;49.864;8.550;2023-04-08T14:34:08;10.03;;;8.47;;
10088;SDS011;51898;49.864;8.550;2023-04-08T14:37:09;9.03;;;8.07;;
10088;SDS011;51898;49.864;8.550;2023-04-08T14:40:12;8.87;;;7.90;;
10088;SDS011;51898;49.864;8.550;2023-04-08T14:43:13;10.10;;;8.47;;
10088;SDS011;51898;49.864;8.550;2023-04-08T14:46:15;9.70;;;8.07;;
10088;SDS011;51898;49.864;8.550;2023-04-08T14:49:17;10.17;;;9.17;;
10088;SDS011;51898;49.864;8.550;2023-04-08T14:52:18;9.37;;;8.47;;
10088;SDS011;51898;49.864;8.550;2023-04-08T14:55:20;9.90;;;8.70;;
10088;SDS011;51898;49.864;8.550;2023-04-08T14:58:22;10.50;;;8.43;;
10088;SDS011;51898;49.864;8.550;2023-04-08T15:01:24;10.23;;;8.37;;
10088;SDS011;51898;49.864;8.550;2023-04-08T15:04:26;10.30;;;8.50;;
10088;SDS011;51898;49.864;8.550;2023-04-08T15:07:27;9.27;;;7.90;;
10088;SDS011;51898;49.864;8.550;2023-04-08T15:10:29;9.20;;;8.13;;
10088;SDS011;51898;49.864;8.550;2023-04-08T15:13:31;9.30;;;8.13;;
10088;SDS011;51898;49.864;8.550;2023-04-08T15:16:33;7.97;;;7.20;;
10088;SDS011;51898;49.864;8.550;2023-04-08T15:19:35;9.00;;;8.10;;
10088;SDS011;51898;49.864;8.550;2023-04-08T15:22:36;8.63;;;7.13;;
10088;SDS011;51898;49.864;8.550;2023-04-08T15:25:38;8.50;;;7.60;;
10088;SDS011;51898;49.864;8.550;2023-04-08T15:28:40;10.67;;;8.57;;
10088;SDS011;51898;49.864;8.550;2023-04-08T15:31:42;10.03;;;8.57;;
10088;SDS011;51898;49.864;8.550;2023-04-08T15:34:44;8.67;;;7.80;;
10088;SDS011;51898;49.864;8.550;2023-04-08T15:37:46;11.17;;;8.53;;
10088;SDS011;51898;49.864;8.550;2023-04-08T15:40:47;12.80;;;9.10;;
10088;SDS011;51898;49.864;8.550;2023-04-08T15:43:49;10.67;;;9.20;;
10088;SDS011;51898;49.864;8.550;2023-04-08T15:46:52;11.10;;;8.60;;
10088;SDS011;51898;49.864;8.550;2023-04-08T15:49:54;10.20;;;8.80;;
10088;SDS011;51898;49.864;8.550;2023-04-08T15:52:56;12.07;;;9.17;;
10088;SDS011;51898;49.864;8.550;2023-04-08T15:55:57;10.77;;;9.30;;
10088;SDS011;51898;49.864;8.550;2023-04-08T15:58:59;14.80;;;9.70;;
10088;SDS011;51898;49.864;8.550;2023-04-08T16:02:01;9.70;;;8.70;;
10088;SDS011;51898;49.864;8.550;2023-04-08T16:05:03;11.20;;;9.70;;
10088;SDS011;51898;49.864;8.550;2023-04-08T16:08:04;10.73;;;7.90;;
10088;SDS011;51898;49.864;8.550;2023-04-08T16:11:06;10.87;;;7.83;;
10088;SDS011;51898;49.864;8.550;2023-04-08T16:14:08;10.77;;;9.10;;
10088;SDS011;51898;49.864;8.550;2023-04-08T16:17:11;12.20;;;9.77;;
10088;SDS011;51898;49.864;8.550;2023-04-08T16:20:13;14.20;;;9.13;;
10088;SDS011;51898;49.864;8.550;2023-04-08T16:23:15;11.37;;;9.70;;
10088;SDS011;51898;49.864;8.550;2023-04-08T16:26:18;14.00;;;9.20;;
10088;SDS011;51898;49.864;8.550;2023-04-08T16:29:21;11.33;;;9.27;;
10088;SDS011;51898;49.864;8.550;2023-04-08T16:32:23;16.30;;;8.73;;
10088;SDS011;51898;49.864;8.550;2023-04-08T16:35:24;10.93;;;8.47;;
10088;SDS011;51898;49.864;8.550;2023-04-08T16:38:26;9.33;;;8.33;;
10088;SDS011;51898;49.864;8.550;2023-04-08T16:41:28;11.63;;;9.10;;
10088;SDS011;51898;49.864;8.550;2023-04-08T16:44:29;10.90;;;9.37;;
10088;SDS011;51898;49.864;8.550;2023-04-08T16:47:31;11.30;;;9.90;;
10088;SDS011;51898;49.864;8.550;2023-04-08T16:50:33;11.43;;;10.23;;
10088;SDS011;51898;49.864;8.550;2023-04-08T16:53:37;13.43;;;10.50;;
10088;SDS011;51898;49.864;8.550;2023-04-08T16:56:39;12.70;;;9.77;;
10088;SDS011;51898;49.864;8.550;2023-04-08T16:59:45;12.53;;;9.83;;
10088;SDS011;51898;49.864;8.550;2023-04-08T17:02:47;11.07;;;9.67;;
10088;SDS011;51898;49.864;8.550;2023-04-08T17:05:49;12.17;;;9.47;;
10088;SDS011;51898;49.864;8.550;2023-04-08T17:08:51;11.50;;;9.67;;
10088;SDS011;51898;49.864;8.550;2023-04-08T17:11:53;14.63;;;10.07;;
10088;SDS011;51898;49.864;8.550;2023-04-08T17:14:56;16.20;;;10.90;;
10088;SDS011;51898;49.864;8.550;2023-04-08T17:17:57;16.23;;;11.53;;
10088;SDS011;51898;49.864;8.550;2023-04-08T17:20:59;13.83;;;10.37;;
10088;SDS011;51898;49.864;8.550;2023-04-08T17:24:01;14.13;;;11.60;;
10088;SDS011;51898;49.864;8.550;2023-04-08T17:27:03;13.60;;;10.90;;
10088;SDS011;51898;49.864;8.550;2023-04-08T17:30:05;13.53;;;11.23;;
10088;SDS011;51898;49.864;8.550;2023-04-08T17:33:10;14.47;;;12.07;;
10088;SDS011;51898;49.864;8.550;2023-04-08T17:36:12;14.77;;;11.30;;
10088;SDS011;51898;49.864;8.550;2023-04-08T17:39:15;17.67;;;11.97;;
10088;SDS011;51898;49.864;8.550;2023-04-08T17:42:17;14.77;;;10.43;;
10088;SDS011;51898;49.864;8.550;2023-04-08T17:45:22;12.00;;;10.60;;
10088;SDS011;51898;49.864;8.550;2023-04-08T17:48:24;18.40;;;12.53;;
10088;SDS011;51898;49.864;8.550;2023-04-08T17:51:26;16.27;;;11.97;;
10088;SDS011;51898;49.864;8.550;2023-04-08T17:54:29;13.00;;;9.10;;
10088;SDS011;51898;49.864;8.550;2023-04-08T17:57:34;11.10;;;8.60;;
10088;SDS011;51898;49.864;8.550;2023-04-08T18:00:36;11.80;;;8.30;;
10088;SDS011;51898;49.864;8.550;2023-04-08T18:03:37;11.17;;;8.50;;
10088;SDS011;51898;49.864;8.550;2023-04-08T18:06:39;9.60;;;7.93;;
10088;SDS011;51898;49.864;8.550;2023-04-08T18:09:41;8.27;;;6.87;;
10088;SDS011;51898;49.864;8.550;2023-04-08T18:12:42;8.33;;;5.97;;
10088;SDS011;51898;49.864;8.550;2023-04-08T18:15:44;7.90;;;5.67;;
10088;SDS011;51898;49.864;8.550;2023-04-08T18:18:46;8.10;;;5.73;;